This is the latest recevied weather packets stored in our database for station/object W5CRT. If no packets are shown the sender has not sent any weather packets the latest 10 day(s).
| Time | Temp. | Humidity | Pressure | Rain* | Wind** | Luminosity | Snow |
|---|---|---|---|---|---|---|---|
| 1777801368 | 15.56° C | 65% | 1018 hPa | 0 mm | - | 0 W/m² | - |
| 1777801064 | 15.56° C | 65% | 1018.1 hPa | 0 mm | - | 0 W/m² | - |
| 1777800761 | 15.56° C | 65% | 1018 hPa | 0 mm | - | 0 W/m² | - |
| 1777800456 | 15.56° C | 65% | 1017.9 hPa | 0 mm | - | 0 W/m² | - |
| 1777800153 | 15.56° C | 64% | 1017.8 hPa | 0 mm | - | 0 W/m² | - |
| 1777799848 | 15.56° C | 64% | 1017.8 hPa | 0 mm | - | 0 W/m² | - |
| 1777799546 | 15.56° C | 64% | 1018 hPa | 0 mm | - | 0 W/m² | - |
| 1777799241 | 15.56° C | 64% | 1017.8 hPa | 0 mm | - | 0 W/m² | - |
| 1777798938 | 15.56° C | 63% | 1017.9 hPa | 0 mm | - | 0 W/m² | - |
| 1777798633 | 15.56° C | 64% | 1017.8 hPa | 0 mm | - | 0 W/m² | - |
| 1777798330 | 15° C | 65% | 1017.7 hPa | 0 mm | - | 0 W/m² | - |
| 1777798027 | 15° C | 67% | 1017.7 hPa | 0 mm | - | 0 W/m² | - |
| 1777797725 | 13.89° C | 72% | 1017.8 hPa | 0 mm | - | 0 W/m² | - |
| 1777797422 | 12.22° C | 80% | 1017.6 hPa | 0 mm | - | 0 W/m² | - |
| 1777797119 | 12.78° C | 80% | 1017.8 hPa | 0 mm | - | 0 W/m² | - |
| 1777796816 | 12.22° C | 80% | 1017.6 hPa | 0 mm | - | 0 W/m² | - |
| 1777796513 | 12.78° C | 80% | 1017.8 hPa | 0 mm | - | 0 W/m² | - |
| 1777796207 | 12.78° C | 80% | 1017.7 hPa | 0 mm | - | 0 W/m² | - |
| 1777795904 | 12.78° C | 79% | 1017.7 hPa | 0 mm | - | 0 W/m² | - |
| 1777795600 | 12.78° C | 79% | 1017.9 hPa | 0 mm | - | 0 W/m² | - |
| 1777795298 | 12.78° C | 78% | 1017.8 hPa | 0 mm | - | 0 W/m² | - |
| 1777794994 | 13.33° C | 76% | 1017.8 hPa | 0 mm | - | 0 W/m² | - |
| 1777794691 | 13.33° C | 75% | 1017.7 hPa | 0 mm | - | 0 W/m² | - |
| 1777794386 | 13.33° C | 74% | 1018 hPa | 0 mm | - | 0 W/m² | - |
| 1777794082 | 13.89° C | 72% | 1018.1 hPa | 0 mm | - | 0 W/m² | - |
* Rain latest hour (hover to see other rain measurements)
** Current wind speed in m/s (hover to see current wind gust speed)